createdAt,value
2022-12-18T00:00:12.258Z,9.65
2022-12-18T00:03:17.456Z,10.75
2022-12-18T00:06:20.683Z,7.95
2022-12-18T00:09:24.780Z,11.43
2022-12-18T00:12:26.934Z,11.07
2022-12-18T00:15:28.983Z,11.80
2022-12-18T00:18:31.144Z,11.77
2022-12-18T00:21:34.525Z,12.52
2022-12-18T00:24:36.547Z,10.80
2022-12-18T00:27:38.643Z,10.38
2022-12-18T00:30:40.685Z,12.00
2022-12-18T00:33:42.970Z,12.40
2022-12-18T00:36:45.128Z,11.35
2022-12-18T00:39:49.463Z,9.40
2022-12-18T00:42:57.584Z,12.10
2022-12-18T00:45:59.588Z,11.35
2022-12-18T00:49:01.712Z,11.85
2022-12-18T00:52:03.772Z,10.07
2022-12-18T00:55:06.689Z,2.93
2022-12-18T00:58:10.671Z,9.45
2022-12-18T01:01:12.814Z,8.00
2022-12-18T01:04:15.406Z,10.57
2022-12-18T01:07:17.584Z,13.35
2022-12-18T01:10:19.761Z,8.70
2022-12-18T01:13:21.711Z,12.40
2022-12-18T01:16:24.246Z,10.68
2022-12-18T01:19:26.342Z,7.85
2022-12-18T01:22:28.665Z,6.55
2022-12-18T01:25:30.705Z,7.27
2022-12-18T01:28:33.128Z,9.63
2022-12-18T01:31:35.739Z,10.13
2022-12-18T01:34:38.498Z,8.43
2022-12-18T01:37:40.566Z,9.80
2022-12-18T01:40:42.680Z,9.43
2022-12-18T01:43:47.322Z,8.90
2022-12-18T01:46:49.332Z,6.60
2022-12-18T01:49:51.810Z,7.22
2022-12-18T01:53:04.996Z,9.57
2022-12-18T01:56:07.711Z,7.90
2022-12-18T01:59:12.642Z,8.20
2022-12-18T02:02:15.924Z,8.52
2022-12-18T02:05:28.064Z,8.65
2022-12-18T02:08:36.889Z,6.40
2022-12-18T02:11:57.026Z,6.87
2022-12-18T02:14:59.071Z,10.13
2022-12-18T02:18:17.522Z,9.50
2022-12-18T02:21:22.493Z,7.70
2022-12-18T02:24:40.467Z,7.60
2022-12-18T02:27:45.390Z,8.63
2022-12-18T02:30:50.296Z,5.72
2022-12-18T02:33:56.452Z,7.47
2022-12-18T02:37:02.259Z,8.15
2022-12-18T02:40:06.135Z,7.87
2022-12-18T02:43:11.822Z,7.17
2022-12-18T02:46:26.380Z,6.70
2022-12-18T02:49:43.428Z,8.35
2022-12-18T02:53:10.305Z,8.35
2022-12-18T02:56:22.808Z,8.55
2022-12-18T02:59:41.795Z,9.57
2022-12-18T03:02:57.478Z,10.60
2022-12-18T03:06:26.597Z,9.43
2022-12-18T03:09:43.178Z,12.90
2022-12-18T03:13:08.577Z,9.88
2022-12-18T03:16:16.642Z,8.63
2022-12-18T03:19:23.491Z,7.43
2022-12-18T03:22:30.448Z,5.12
2022-12-18T03:25:35.456Z,12.15
2022-12-18T03:28:43.255Z,12.32
2022-12-18T03:31:50.836Z,10.93
2022-12-18T03:34:56.521Z,7.22
2022-12-18T03:37:58.811Z,11.27
2022-12-18T03:41:07.611Z,10.95
2022-12-18T03:44:41.800Z,4.80
2022-12-18T03:47:46.476Z,9.57
2022-12-18T03:50:58.437Z,9.93
2022-12-18T03:54:03.665Z,6.95
2022-12-18T03:57:16.921Z,9.93
2022-12-18T04:00:20.628Z,10.02
2022-12-18T04:03:26.556Z,7.07
2022-12-18T04:06:40.464Z,7.30
2022-12-18T04:09:44.787Z,8.98
2022-12-18T04:12:47.127Z,7.93
2022-12-18T04:15:49.324Z,8.02
2022-12-18T04:18:51.707Z,6.30
2022-12-18T04:21:57.024Z,6.82
2022-12-18T04:24:59.110Z,8.10
2022-12-18T04:28:01.159Z,7.90
2022-12-18T04:31:03.694Z,7.43
2022-12-18T04:34:05.800Z,7.50
2022-12-18T04:37:07.784Z,6.90
2022-12-18T04:40:10.607Z,8.27
2022-12-18T04:43:12.949Z,5.35
2022-12-18T04:46:15.523Z,5.28
2022-12-18T04:49:18.298Z,6.87
2022-12-18T04:52:20.317Z,6.15
2022-12-18T04:55:22.803Z,6.43
2022-12-18T04:58:25.175Z,6.07
2022-12-18T05:01:34.100Z,5.30
2022-12-18T05:04:36.835Z,7.60
2022-12-18T05:07:38.830Z,6.62
2022-12-18T05:10:40.893Z,5.65
2022-12-18T05:13:45.460Z,5.45
2022-12-18T05:16:47.628Z,6.55
2022-12-18T05:19:49.982Z,2.40
2022-12-18T05:22:52.675Z,3.87
2022-12-18T05:25:56.796Z,2.67
2022-12-18T05:28:58.842Z,5.35
2022-12-18T05:32:00.844Z,5.35
2022-12-18T05:35:03.263Z,5.83
2022-12-18T05:38:05.393Z,5.57
2022-12-18T05:41:08.793Z,6.82
2022-12-18T05:44:10.788Z,6.35
2022-12-18T05:47:12.911Z,6.30
2022-12-18T05:50:15.025Z,6.60
2022-12-18T05:53:20.475Z,6.03
2022-12-18T05:56:23.568Z,6.35
2022-12-18T05:59:25.595Z,6.75
2022-12-18T06:02:27.752Z,6.72
2022-12-18T06:05:29.879Z,6.83
2022-12-18T06:08:32.091Z,7.35
2022-12-18T06:11:34.126Z,7.65
2022-12-18T06:14:36.135Z,8.60
2022-12-18T06:17:38.407Z,8.82
2022-12-18T06:20:42.470Z,7.60
2022-12-18T06:23:44.752Z,9.43
2022-12-18T06:26:46.855Z,10.05
2022-12-18T06:29:48.875Z,7.75
2022-12-18T06:32:56.371Z,8.45
2022-12-18T06:36:09.208Z,10.70
2022-12-18T06:39:11.407Z,10.93
2022-12-18T06:42:13.808Z,10.75
2022-12-18T06:45:16.237Z,10.95
2022-12-18T06:48:18.311Z,12.50
2022-12-18T06:51:22.145Z,12.88
2022-12-18T06:54:24.162Z,13.48
2022-12-18T06:57:26.353Z,13.70
2022-12-18T07:00:28.453Z,12.10
2022-12-18T07:03:30.938Z,12.32
2022-12-18T07:06:32.998Z,14.43
2022-12-18T07:09:35.365Z,16.75
2022-12-18T07:12:37.463Z,15.90
2022-12-18T07:15:39.512Z,15.02
2022-12-18T07:18:41.634Z,14.55
2022-12-18T07:21:43.749Z,14.13
2022-12-18T07:24:45.973Z,15.00
2022-12-18T07:27:47.971Z,16.97
2022-12-18T07:30:50.039Z,15.18
2022-12-18T07:33:53.031Z,14.70
2022-12-18T07:36:55.049Z,14.07
2022-12-18T07:39:57.133Z,14.68
2022-12-18T07:42:59.274Z,15.27
2022-12-18T07:46:01.768Z,14.98
2022-12-18T07:49:03.898Z,16.67
2022-12-18T07:52:05.920Z,15.35
2022-12-18T07:55:08.498Z,15.75
2022-12-18T07:58:11.042Z,14.83
2022-12-18T08:01:13.351Z,12.88
2022-12-18T08:04:15.475Z,14.10
2022-12-18T08:07:17.467Z,12.52
2022-12-18T08:10:20.324Z,12.65
2022-12-18T08:13:22.747Z,13.83
2022-12-18T08:16:25.423Z,13.15
2022-12-18T08:19:27.524Z,13.80
2022-12-18T08:22:29.706Z,13.77
2022-12-18T08:25:31.775Z,14.93
2022-12-18T08:28:34.739Z,13.50
2022-12-18T08:31:38.404Z,13.10
2022-12-18T08:34:40.545Z,11.73
2022-12-18T08:37:42.536Z,13.30
2022-12-18T08:40:44.649Z,12.77
2022-12-18T08:44:05.641Z,12.17
2022-12-18T08:47:08.613Z,10.47
2022-12-18T08:50:10.941Z,12.32
2022-12-18T08:53:13.222Z,12.05
2022-12-18T08:56:15.632Z,11.20
2022-12-18T08:59:20.111Z,8.43
2022-12-18T09:02:23.004Z,9.47
2022-12-18T09:05:25.352Z,7.15
2022-12-18T09:08:28.265Z,9.02
2022-12-18T09:11:31.053Z,8.50
2022-12-18T09:14:33.208Z,7.43
2022-12-18T09:17:35.272Z,6.57
2022-12-18T09:20:38.574Z,5.15
2022-12-18T09:23:40.941Z,6.87
2022-12-18T09:26:43.475Z,7.05
2022-12-18T09:29:48.993Z,7.23
2022-12-18T09:32:51.197Z,5.20
2022-12-18T09:35:53.297Z,5.68
2022-12-18T09:38:55.854Z,5.50
2022-12-18T09:42:00.001Z,7.12
2022-12-18T09:45:03.563Z,5.27
2022-12-18T09:48:08.255Z,6.07
2022-12-18T09:51:27.535Z,8.50
2022-12-18T09:54:41.778Z,5.93
2022-12-18T09:57:52.437Z,7.22
2022-12-18T10:00:55.371Z,7.70
2022-12-18T10:03:57.986Z,7.93
2022-12-18T10:07:13.115Z,7.30
2022-12-18T10:10:44.385Z,6.15
2022-12-18T10:14:18.623Z,7.28
2022-12-18T10:17:40.081Z,7.47
2022-12-18T10:20:54.112Z,6.97
2022-12-18T10:24:14.798Z,7.82
2022-12-18T10:27:22.572Z,7.03
2022-12-18T10:30:26.259Z,8.27
2022-12-18T10:33:31.338Z,8.97
2022-12-18T10:36:33.354Z,7.43
2022-12-18T10:39:35.430Z,7.22
2022-12-18T10:42:37.532Z,8.32
2022-12-18T10:45:40.561Z,8.48
2022-12-18T10:48:53.957Z,7.93
2022-12-18T10:52:26.819Z,7.97
2022-12-18T10:55:34.592Z,8.27
2022-12-18T10:58:38.844Z,8.35
2022-12-18T11:01:47.146Z,7.50
2022-12-18T11:04:53.639Z,7.33
2022-12-18T11:07:57.324Z,7.93
2022-12-18T11:10:59.622Z,8.35
2022-12-18T11:14:07.950Z,8.30
2022-12-18T11:17:26.669Z,7.93
2022-12-18T11:20:34.659Z,8.27
2022-12-18T11:23:38.679Z,6.13
2022-12-18T11:26:41.176Z,8.10
2022-12-18T11:29:46.538Z,7.82
2022-12-18T11:32:58.255Z,5.43
2022-12-18T11:36:06.558Z,5.47
2022-12-18T11:39:21.000Z,5.27
2022-12-18T11:42:49.398Z,5.12
2022-12-18T11:45:55.638Z,4.62
2022-12-18T11:49:26.767Z,4.80
2022-12-18T11:52:39.311Z,5.47
2022-12-18T11:55:56.431Z,5.10
2022-12-18T11:59:09.218Z,2.83
2022-12-18T12:02:29.702Z,5.05
2022-12-18T12:05:52.027Z,5.68
2022-12-18T12:09:06.163Z,4.60
2022-12-18T12:12:17.146Z,5.07
2022-12-18T12:15:19.180Z,3.85
2022-12-18T12:18:34.439Z,3.78
2022-12-18T12:21:46.218Z,3.72
2022-12-18T12:25:16.257Z,3.80
2022-12-18T12:29:04.173Z,4.13
2022-12-18T12:32:36.049Z,4.40
2022-12-18T12:36:15.786Z,4.35
2022-12-18T12:39:24.718Z,3.30
2022-12-18T12:42:57.967Z,3.60
2022-12-18T12:46:10.005Z,3.57
2022-12-18T12:49:18.711Z,3.90
2022-12-18T12:52:26.947Z,4.20
2022-12-18T12:55:30.964Z,4.03
2022-12-18T12:58:48.281Z,4.10
2022-12-18T13:02:24.218Z,4.10
2022-12-18T13:05:47.324Z,4.82
2022-12-18T13:09:01.207Z,4.30
2022-12-18T13:12:33.336Z,4.20
2022-12-18T13:15:39.821Z,4.17
2022-12-18T13:19:11.969Z,4.40
2022-12-18T13:22:36.566Z,4.95
2022-12-18T13:25:39.391Z,4.87
2022-12-18T13:28:48.360Z,4.90
2022-12-18T13:31:50.373Z,4.43
2022-12-18T13:35:18.515Z,4.23
2022-12-18T13:38:32.425Z,5.20
2022-12-18T13:41:35.058Z,5.25
2022-12-18T13:44:42.400Z,4.95
2022-12-18T13:47:45.003Z,4.33
2022-12-18T13:51:17.862Z,4.90
2022-12-18T13:54:41.812Z,5.20
2022-12-18T13:57:44.084Z,4.22
2022-12-18T14:00:46.423Z,3.75
2022-12-18T14:03:48.935Z,4.80
2022-12-18T14:06:57.425Z,4.60
2022-12-18T14:10:12.598Z,4.65
2022-12-18T14:13:38.521Z,5.32
2022-12-18T14:16:42.522Z,5.25
2022-12-18T14:19:51.453Z,5.50
2022-12-18T14:22:53.831Z,4.63
2022-12-18T14:25:58.569Z,4.65
2022-12-18T14:29:20.848Z,5.18
2022-12-18T14:32:23.915Z,5.18
2022-12-18T14:35:25.962Z,5.83
2022-12-18T14:38:29.913Z,5.90
2022-12-18T14:41:34.217Z,6.10
2022-12-18T14:44:50.544Z,6.53
2022-12-18T14:47:58.949Z,7.40
2022-12-18T14:51:08.069Z,6.50
2022-12-18T14:54:18.715Z,6.43
2022-12-18T14:57:38.973Z,6.95
2022-12-18T15:00:46.476Z,7.05
2022-12-18T15:03:49.317Z,8.80
2022-12-18T15:07:05.821Z,8.70
2022-12-18T15:10:16.452Z,9.30
2022-12-18T15:13:25.981Z,8.98
2022-12-18T15:16:29.345Z,10.45
2022-12-18T15:19:43.261Z,11.98
2022-12-18T15:22:50.992Z,10.93
2022-12-18T15:25:58.393Z,11.97
2022-12-18T15:29:04.674Z,13.48
2022-12-18T15:32:24.441Z,9.95
2022-12-18T15:35:27.468Z,7.18
2022-12-18T15:38:30.650Z,8.90
2022-12-18T15:41:38.138Z,8.57
2022-12-18T15:44:41.313Z,10.02
2022-12-18T15:47:44.480Z,9.02
2022-12-18T15:50:48.364Z,9.63
2022-12-18T15:53:53.976Z,7.93
2022-12-18T15:57:15.234Z,8.73
2022-12-18T16:00:18.519Z,9.45
2022-12-18T16:03:21.411Z,10.90
2022-12-18T16:06:24.973Z,8.55
2022-12-18T16:09:30.945Z,8.83
2022-12-18T16:12:35.485Z,7.45
2022-12-18T16:15:39.170Z,7.05
2022-12-18T16:18:43.485Z,7.62
2022-12-18T16:21:48.002Z,8.15
2022-12-18T16:24:54.154Z,9.10
2022-12-18T16:27:58.829Z,9.65
2022-12-18T16:31:02.904Z,9.73
2022-12-18T16:34:36.296Z,7.07
2022-12-18T16:37:40.461Z,9.35
2022-12-18T16:41:03.638Z,9.37
2022-12-18T16:44:06.268Z,11.40
2022-12-18T16:47:08.789Z,10.77
2022-12-18T16:50:14.893Z,10.23
2022-12-18T16:53:17.959Z,10.52
2022-12-18T16:56:21.843Z,9.37
2022-12-18T16:59:27.567Z,10.15
2022-12-18T17:02:32.328Z,10.65
2022-12-18T17:05:37.189Z,10.02
2022-12-18T17:08:41.395Z,9.85
2022-12-18T17:11:48.699Z,10.50
2022-12-18T17:14:51.937Z,9.48
2022-12-18T17:17:55.140Z,9.48
2022-12-18T17:21:19.367Z,10.38
2022-12-18T17:24:23.555Z,9.98
2022-12-18T17:27:26.674Z,10.27
2022-12-18T17:30:30.620Z,10.63
2022-12-18T17:33:36.526Z,11.38
2022-12-18T17:36:39.753Z,11.75
2022-12-18T17:39:44.542Z,11.70
2022-12-18T17:42:48.904Z,12.03
2022-12-18T17:45:52.074Z,12.02
2022-12-18T17:48:59.734Z,14.85
2022-12-18T17:52:02.928Z,20.95
2022-12-18T17:55:06.461Z,16.95
2022-12-18T17:58:09.663Z,16.57
2022-12-18T18:01:18.431Z,15.45
2022-12-18T18:04:21.159Z,13.95
2022-12-18T18:07:23.994Z,15.20
2022-12-18T18:10:28.303Z,12.43
2022-12-18T18:13:50.728Z,13.40
2022-12-18T18:16:53.911Z,14.40
2022-12-18T18:19:58.253Z,13.65
2022-12-18T18:23:01.132Z,14.90
2022-12-18T18:26:09.867Z,14.02
2022-12-18T18:29:20.575Z,13.17
2022-12-18T18:32:23.727Z,12.75
2022-12-18T18:35:53.045Z,13.32
2022-12-18T18:38:51.041Z,13.30
2022-12-18T18:41:54.091Z,13.32
2022-12-18T18:44:57.044Z,12.63
2022-12-18T18:48:00.618Z,12.75
2022-12-18T18:51:07.440Z,14.80
2022-12-18T18:54:11.480Z,14.15
2022-12-18T18:57:24.260Z,12.73
2022-12-18T19:00:29.399Z,11.27
2022-12-18T19:03:33.048Z,11.55
2022-12-18T19:06:35.976Z,13.38
2022-12-18T19:09:38.943Z,11.65
2022-12-18T19:13:00.088Z,13.57
2022-12-18T19:16:08.013Z,11.35
2022-12-18T19:19:13.451Z,10.73
2022-12-18T19:22:17.196Z,10.27
2022-12-18T19:25:19.813Z,11.50
2022-12-18T19:28:26.848Z,11.23
2022-12-18T19:31:35.256Z,9.85
2022-12-18T19:34:40.278Z,10.20
2022-12-18T19:37:43.054Z,8.82
2022-12-18T19:40:45.946Z,11.20
2022-12-18T19:43:49.820Z,9.33
2022-12-18T19:46:52.543Z,10.75
2022-12-18T19:49:55.364Z,10.00
2022-12-18T19:52:59.576Z,9.52
2022-12-18T19:56:12.550Z,11.10
2022-12-18T19:59:16.843Z,10.10
2022-12-18T20:02:22.180Z,11.15
2022-12-18T20:05:25.966Z,11.45
2022-12-18T20:08:30.171Z,11.63
2022-12-18T20:11:41.666Z,11.53
2022-12-18T20:14:45.494Z,12.50
2022-12-18T20:17:48.674Z,12.90
2022-12-18T20:20:55.217Z,11.80
2022-12-18T20:24:01.479Z,6.90
2022-12-18T20:27:04.700Z,9.00
2022-12-18T20:30:08.761Z,11.95
2022-12-18T20:33:11.260Z,12.35
2022-12-18T20:36:20.149Z,11.10
2022-12-18T20:39:27.072Z,11.90
2022-12-18T20:42:29.622Z,13.73
2022-12-18T20:45:31.760Z,13.88
2022-12-18T20:48:34.416Z,13.55
2022-12-18T20:51:37.413Z,13.52
2022-12-18T20:54:40.435Z,12.07
2022-12-18T20:57:42.823Z,12.90
2022-12-18T21:00:45.257Z,11.63
2022-12-18T21:03:49.371Z,11.63
2022-12-18T21:06:55.842Z,11.12
2022-12-18T21:10:04.933Z,12.27
2022-12-18T21:13:08.715Z,10.77
2022-12-18T21:16:12.375Z,10.65
2022-12-18T21:19:17.872Z,11.98
2022-12-18T21:22:20.192Z,9.52
2022-12-18T21:25:22.482Z,9.25
2022-12-18T21:28:24.531Z,11.82
2022-12-18T21:31:29.307Z,11.32
2022-12-18T21:34:33.336Z,10.80
2022-12-18T21:37:35.489Z,10.83
2022-12-18T21:40:39.438Z,11.18
2022-12-18T21:44:00.181Z,10.27
2022-12-18T21:47:12.280Z,11.07
2022-12-18T21:50:24.585Z,9.37
2022-12-18T21:53:26.674Z,9.93
2022-12-18T21:56:51.372Z,11.02
2022-12-18T21:59:53.566Z,10.40
2022-12-18T22:03:10.465Z,10.15
2022-12-18T22:06:19.617Z,10.83
2022-12-18T22:09:24.208Z,10.05
2022-12-18T22:12:35.811Z,11.23
2022-12-18T22:15:46.013Z,10.35
2022-12-18T22:18:48.489Z,10.73
2022-12-18T22:21:51.248Z,12.27
2022-12-18T22:24:53.382Z,10.82
2022-12-18T22:28:13.955Z,10.65
2022-12-18T22:31:17.058Z,11.65
2022-12-18T22:34:22.851Z,11.30
2022-12-18T22:37:25.390Z,12.40
2022-12-18T22:40:28.234Z,11.93
2022-12-18T22:43:30.425Z,10.77
2022-12-18T22:46:37.951Z,11.67
2022-12-18T22:49:40.052Z,11.65
2022-12-18T22:52:42.556Z,12.88
2022-12-18T22:55:44.624Z,11.48
2022-12-18T22:58:51.484Z,12.17
2022-12-18T23:01:58.564Z,11.20
2022-12-18T23:05:00.997Z,11.05
2022-12-18T23:08:04.486Z,11.65
2022-12-18T23:11:06.973Z,11.43
2022-12-18T23:14:09.068Z,12.25
2022-12-18T23:17:11.969Z,12.98
2022-12-18T23:20:14.203Z,13.77
2022-12-18T23:23:16.218Z,14.77
2022-12-18T23:26:27.694Z,17.25
2022-12-18T23:29:29.807Z,13.18
2022-12-18T23:32:31.836Z,13.43
2022-12-18T23:35:35.645Z,13.90
2022-12-18T23:38:38.077Z,13.25
2022-12-18T23:41:40.291Z,12.90
2022-12-18T23:44:42.530Z,10.25
2022-12-18T23:47:44.622Z,11.00
2022-12-18T23:50:49.227Z,11.03
2022-12-18T23:53:52.468Z,11.32
2022-12-18T23:56:54.493Z,9.40
2022-12-18T23:59:56.625Z,11.68
